Time;durP1;ratioP1;P1;durP2;ratioP2;P2;SDS_P1;SDS_P2;PMS_P1;PMS_P2;Temp;Humidity;BMP_temperature;BMP_pressure;BME280_temperature;BME280_humidity;BME280_pressure;Samples;Min_cycle;Max_cycle;Signal;HPM_P1;HPM_P2
2022/03/16 00:03:09;;;;;;;80.43;36.77;;;;;;;4.50;100.00;97023.22;10414015;28;20212;-61
2022/03/16 00:08:11;;;;;;;66.33;34.70;;;;;;;4.55;100.00;97025.50;10413835;28;20274;-61
2022/03/16 00:13:12;;;;;;;70.33;35.03;;;;;;;4.46;100.00;97019.22;10413745;28;20701;-60
2022/03/16 00:18:13;;;;;;;77.23;36.90;;;;;;;4.52;100.00;97026.56;10413219;28;20275;-62
2022/03/16 00:23:14;;;;;;;78.13;37.30;;;;;;;4.46;100.00;97022.63;10413287;28;20216;-61
2022/03/16 00:28:15;;;;;;;73.83;36.20;;;;;;;4.51;100.00;97024.06;10412842;28;20223;-62
2022/03/16 00:33:15;;;;;;;82.93;38.23;;;;;;;4.49;100.00;97026.78;10412597;28;20232;-62
2022/03/16 00:38:16;;;;;;;80.27;38.20;;;;;;;4.44;100.00;97034.03;10412500;28;20203;-61
2022/03/16 00:43:17;;;;;;;78.80;38.07;;;;;;;4.49;100.00;97037.16;10411466;28;20679;-62
2022/03/16 00:48:17;;;;;;;84.63;38.13;;;;;;;4.44;100.00;97041.84;10412554;28;20192;-62
2022/03/16 00:53:18;;;;;;;69.17;35.23;;;;;;;4.56;100.00;97053.91;10411871;28;20279;-62
2022/03/16 00:58:19;;;;;;;74.13;35.27;;;;;;;4.44;100.00;97054.81;10411762;28;20632;-62
2022/03/16 01:03:19;;;;;;;80.50;37.07;;;;;;;4.40;100.00;97058.56;10411789;28;20278;-62
2022/03/16 01:08:20;;;;;;;83.30;37.07;;;;;;;4.41;100.00;97060.22;10411456;28;20537;-62
2022/03/16 01:13:20;;;;;;;87.57;39.07;;;;;;;4.43;100.00;97068.72;10411701;28;20299;-58
2022/03/16 01:18:21;;;;;;;80.53;37.33;;;;;;;4.45;100.00;97077.22;10394377;28;20201;-58
2022/03/16 01:23:21;;;;;;;89.40;41.37;;;;;;;4.39;100.00;97081.06;10412776;28;20240;-58
2022/03/16 01:28:24;;;;;;;82.07;39.03;;;;;;;4.42;100.00;97087.81;10412681;28;20192;-60
2022/03/16 01:33:24;;;;;;;77.60;38.43;;;;;;;4.38;100.00;97091.56;10411938;28;20232;-58
2022/03/16 01:38:25;;;;;;;84.57;39.13;;;;;;;4.35;100.00;97094.38;10411484;28;20208;-60
2022/03/16 01:43:25;;;;;;;77.00;36.97;;;;;;;4.36;100.00;97096.03;10411002;28;20200;-61
2022/03/16 01:48:26;;;;;;;79.83;37.50;;;;;;;4.33;100.00;97102.25;10411548;28;20188;-60
2022/03/16 01:53:27;;;;;;;80.13;38.37;;;;;;;4.32;100.00;97104.94;10414876;28;20683;-63
2022/03/16 01:58:27;;;;;;;81.03;38.87;;;;;;;4.34;100.00;97113.47;10400725;28;20636;-62
2022/03/16 02:03:32;;;;;;;80.07;38.70;;;;;;;4.31;100.00;97124.06;10400635;28;20227;-62
2022/03/16 02:08:32;;;;;;;76.23;36.93;;;;;;;4.33;100.00;97127.38;10400399;28;20582;-62
2022/03/16 02:13:34;;;;;;;81.03;35.67;;;;;;;4.39;100.00;97139.91;10418524;28;20208;-63
2022/03/16 02:18:35;;;;;;;74.93;35.97;;;;;;;4.39;100.00;97138.13;10418011;28;20212;-63
2022/03/16 02:23:35;;;;;;;76.40;35.90;;;;;;;4.46;100.00;97146.34;10417748;28;20216;-62
2022/03/16 02:28:36;;;;;;;76.33;37.23;;;;;;;4.45;100.00;97153.28;10417831;28;20192;-62
2022/03/16 02:33:36;;;;;;;70.67;35.30;;;;;;;4.41;100.00;97159.63;10417102;28;20239;-63
2022/03/16 02:38:37;;;;;;;76.23;36.83;;;;;;;4.36;100.00;97168.66;10417062;28;20216;-62
2022/03/16 02:43:38;;;;;;;80.73;37.87;;;;;;;4.36;100.00;97179.03;10416577;28;20257;-62
2022/03/16 02:48:38;;;;;;;81.63;39.33;;;;;;;4.34;100.00;97194.69;10417075;28;20198;-61
2022/03/16 02:53:39;;;;;;;71.97;36.07;;;;;;;4.43;100.00;97199.25;10416503;28;20243;-61
2022/03/16 02:58:39;;;;;;;79.83;37.77;;;;;;;4.33;100.00;97207.78;10416522;28;20216;-63
2022/03/16 03:03:39;;;;;;;88.97;39.50;;;;;;;4.29;100.00;97217.53;10415644;28;20295;-62
2022/03/16 03:08:40;;;;;;;96.77;40.97;;;;;;;4.21;100.00;97215.47;10415992;28;20192;-63
2022/03/16 03:13:40;;;;;;;82.17;38.93;;;;;;;4.27;100.00;97230.59;10415967;28;20227;-62
2022/03/16 03:18:41;;;;;;;76.93;37.73;;;;;;;4.33;100.00;97238.91;10415765;28;20216;-61
2022/03/16 03:23:41;;;;;;;84.87;37.97;;;;;;;4.36;100.00;97249.06;10415515;28;20619;-61
2022/03/16 03:28:41;;;;;;;97.33;39.73;;;;;;;4.29;100.00;97249.47;10415549;28;20550;-61
2022/03/16 03:33:42;;;;;;;96.83;39.60;;;;;;;4.26;100.00;97257.47;10447829;22;20236;-57
2022/03/16 03:38:42;;;;;;;84.33;38.37;;;;;;;4.27;100.00;97248.75;10412376;28;20224;-57
2022/03/16 03:43:42;;;;;;;84.60;39.00;;;;;;;4.26;100.00;97262.66;10414264;28;20278;-59
2022/03/16 03:48:43;;;;;;;94.83;41.47;;;;;;;4.28;100.00;97272.94;10414142;28;20192;-56
2022/03/16 03:53:43;;;;;;;89.47;39.23;;;;;;;4.29;100.00;97279.78;10413813;28;20262;-59
2022/03/16 03:58:45;;;;;;;86.40;39.03;;;;;;;4.24;100.00;97274.91;10413759;28;20220;-60
2022/03/16 04:03:45;;;;;;;82.73;39.07;;;;;;;4.37;100.00;97287.03;10413943;28;20220;-59
2022/03/16 04:08:45;;;;;;;86.90;38.73;;;;;;;4.24;100.00;97300.84;10413469;28;20181;-59
2022/03/16 04:13:46;;;;;;;90.60;39.17;;;;;;;4.24;100.00;97300.00;10412956;28;20247;-56
2022/03/16 04:18:46;;;;;;;79.03;36.87;;;;;;;4.26;100.00;97311.09;10394383;28;20311;-55
2022/03/16 04:23:47;;;;;;;71.80;34.13;;;;;;;4.33;100.00;97311.53;10412633;28;20212;-55
2022/03/16 04:28:47;;;;;;;69.07;33.30;;;;;;;4.35;100.00;97323.47;10412841;28;20180;-62
2022/03/16 04:33:47;;;;;;;65.20;32.30;;;;;;;4.35;100.00;97323.47;10412337;28;20362;-60
2022/03/16 04:38:50;;;;;;;63.03;30.93;;;;;;;4.31;100.00;97342.75;10411756;28;20596;-57
2022/03/16 04:43:50;;;;;;;67.43;31.43;;;;;;;4.31;100.00;97341.94;10412164;28;20205;-58
2022/03/16 04:48:50;;;;;;;61.07;28.57;;;;;;;4.33;100.00;97346.06;10411722;28;20188;-57
2022/03/16 04:53:51;;;;;;;59.93;28.83;;;;;;;4.35;100.00;97346.81;10411706;28;20277;-58
2022/03/16 04:58:51;;;;;;;57.33;28.20;;;;;;;4.35;100.00;97351.16;10411334;28;20248;-55
2022/03/16 05:03:51;;;;;;;61.23;28.50;;;;;;;4.22;100.00;97369.28;10411246;28;20799;-60
2022/03/16 05:08:52;;;;;;;75.07;30.97;;;;;;;4.14;100.00;97368.97;10411804;28;20739;-59
2022/03/16 05:13:52;;;;;;;65.53;29.40;;;;;;;4.09;100.00;97369.28;10410896;28;20270;-55
2022/03/16 05:18:52;;;;;;;62.47;30.63;;;;;;;4.04;100.00;97377.34;10411112;28;20212;-59
2022/03/16 05:23:53;;;;;;;65.53;29.67;;;;;;;4.12;100.00;97387.22;10410281;28;20339;-56
2022/03/16 05:28:53;;;;;;;64.47;29.93;;;;;;;4.13;100.00;97391.47;10410126;28;20180;-56
2022/03/16 05:33:54;;;;;;;55.87;28.23;;;;;;;4.19;100.00;97398.84;10410128;28;20240;-58
2022/03/16 05:38:54;;;;;;;69.70;31.27;;;;;;;4.26;100.00;97404.47;10410317;28;20223;-55
2022/03/16 05:43:54;;;;;;;65.67;32.07;;;;;;;4.28;100.00;97410.38;10410630;28;20310;-58
2022/03/16 05:48:55;;;;;;;61.97;30.77;;;;;;;4.23;100.00;97417.63;10410524;28;20209;-60
2022/03/16 05:53:55;;;;;;;56.33;29.43;;;;;;;4.29;100.00;97430.22;10410474;28;20216;-55
2022/03/16 05:58:55;;;;;;;57.10;29.53;;;;;;;4.28;100.00;97436.31;10410303;28;20216;-56
2022/03/16 06:03:56;;;;;;;62.17;30.47;;;;;;;4.16;100.00;97437.94;10410105;28;20212;-57
2022/03/16 06:08:57;;;;;;;66.37;31.10;;;;;;;4.24;100.00;97438.28;10410265;28;20193;-55
2022/03/16 06:13:57;;;;;;;65.70;28.70;;;;;;;4.38;100.00;97445.19;10410014;28;20407;-56
2022/03/16 06:18:58;;;;;;;64.47;29.80;;;;;;;4.35;100.00;97454.91;10410183;28;20334;-63
2022/03/16 06:23:58;;;;;;;63.37;31.30;;;;;;;4.44;100.00;97455.16;10409763;28;20299;-63
2022/03/16 06:28:58;;;;;;;58.00;30.43;;;;;;;4.60;100.00;97461.94;10409778;28;20244;-62
2022/03/16 06:33:59;;;;;;;56.10;31.40;;;;;;;4.81;100.00;97473.50;10409419;28;20240;-62
2022/03/16 06:38:59;;;;;;;52.90;27.77;;;;;;;4.66;100.00;97484.06;10411057;28;20216;-62
2022/03/16 06:43:59;;;;;;;51.77;28.27;;;;;;;4.63;100.00;97487.69;10416716;28;20278;-62
2022/03/16 06:49:00;;;;;;;53.47;27.07;;;;;;;4.66;100.00;97491.84;10417002;28;20188;-62
2022/03/16 06:54:00;;;;;;;48.30;26.33;;;;;;;4.75;100.00;97493.84;10416166;28;20221;-62
2022/03/16 06:59:00;;;;;;;51.37;27.47;;;;;;;4.84;100.00;97501.03;10416359;28;20434;-61
2022/03/16 07:04:01;;;;;;;46.97;25.43;;;;;;;4.87;100.00;97508.59;10416106;28;20216;-62
2022/03/16 07:09:02;;;;;;;47.73;26.40;;;;;;;4.98;100.00;97513.09;10415932;28;20262;-60
2022/03/16 07:19:21;;;;;;;57.30;27.93;;;;;;;4.82;100.00;97526.22;10411266;28;20217;-59
2022/03/16 07:24:25;;;;;;;49.33;28.40;;;;;;;4.77;100.00;97528.31;10415329;28;20662;-59
2022/03/16 07:29:25;;;;;;;54.47;28.60;;;;;;;5.04;100.00;97532.59;10414998;28;20316;-60
2022/03/16 07:34:26;;;;;;;53.90;29.87;;;;;;;5.31;100.00;97533.38;10415030;28;20323;-61
2022/03/16 07:39:26;;;;;;;59.43;32.80;;;;;;;5.09;100.00;97540.94;10414270;28;20225;-57
2022/03/16 07:44:27;;;;;;;63.30;32.77;;;;;;;5.61;100.00;97547.00;10414825;28;20347;-59
2022/03/16 07:49:27;;;;;;;55.17;31.70;;;;;;;5.88;100.00;97539.91;10414288;28;20185;-59
2022/03/16 07:54:27;;;;;;;53.30;29.83;;;;;;;6.40;100.00;97551.03;10412279;28;20733;-58
2022/03/16 07:59:28;;;;;;;55.47;30.10;;;;;;;6.72;100.00;97560.06;10414221;28;20721;-59
2022/03/16 08:04:28;;;;;;;45.07;27.23;;;;;;;6.46;100.00;97569.75;10414070;28;20291;-59
2022/03/16 08:09:28;;;;;;;43.20;27.40;;;;;;;6.45;100.00;97571.53;10414192;28;20203;-61
2022/03/16 08:14:29;;;;;;;45.40;27.57;;;;;;;6.62;100.00;97583.34;10410840;28;20220;-57
2022/03/16 08:19:29;;;;;;;49.40;28.33;;;;;;;6.02;100.00;97588.38;10412890;28;20239;-60
2022/03/16 08:24:29;;;;;;;51.37;28.93;;;;;;;5.80;100.00;97586.38;10394335;28;20302;-58
2022/03/16 08:29:30;;;;;;;47.10;29.50;;;;;;;6.55;100.00;97588.13;10412795;28;20189;-59
2022/03/16 08:34:30;;;;;;;40.80;26.60;;;;;;;7.45;100.00;97586.84;10412160;28;20306;-58
2022/03/16 08:39:31;;;;;;;43.20;26.03;;;;;;;8.09;100.00;97583.69;10411872;28;20244;-59
2022/03/16 08:44:31;;;;;;;39.43;24.87;;;;;;;8.38;100.00;97577.97;10410584;28;20307;-60
2022/03/16 08:49:32;;;;;;;35.73;23.70;;;;;;;8.20;100.00;97578.47;10410290;28;20211;-57
2022/03/16 08:54:33;;;;;;;32.80;22.37;;;;;;;8.26;100.00;97579.78;10409287;28;20266;-59
2022/03/16 08:59:33;;;;;;;35.33;22.77;;;;;;;8.81;100.00;97585.03;10407660;28;20295;-58
2022/03/16 09:04:36;;;;;;;25.07;18.30;;;;;;;8.79;100.00;97566.03;10409970;28;20211;-60
2022/03/16 09:09:38;;;;;;;37.00;20.87;;;;;;;8.71;100.00;97571.91;10402835;28;20180;-59
2022/03/16 09:14:39;;;;;;;31.30;21.30;;;;;;;8.65;100.00;97587.19;10384321;28;20224;-60
2022/03/16 09:19:39;;;;;;;34.00;21.37;;;;;;;8.07;100.00;97600.41;10409059;28;20224;-59
2022/03/16 09:24:39;;;;;;;33.40;21.63;;;;;;;8.06;100.00;97601.38;10408675;28;20599;-59
2022/03/16 09:29:40;;;;;;;38.20;22.00;;;;;;;7.52;100.00;97602.84;10407834;28;20575;-58
2022/03/16 09:34:42;;;;;;;36.57;23.13;;;;;;;8.81;100.00;97603.31;10408179;28;20243;-59
2022/03/16 09:39:44;;;;;;;31.70;20.77;;;;;;;9.09;100.00;97590.63;10318466;22;20242;-61
2022/03/16 09:44:45;;;;;;;30.23;20.33;;;;;;;9.07;100.00;97609.03;10286459;28;21023;-62
2022/03/16 09:49:46;;;;;;;40.17;22.17;;;;;;;9.22;100.00;97606.16;10284292;28;20241;-59
2022/03/16 09:54:46;;;;;;;35.07;21.47;;;;;;;10.30;94.94;97571.72;10286363;28;20198;-58
2022/03/16 09:59:47;;;;;;;29.00;20.87;;;;;;;11.60;89.24;97561.03;10286176;28;20227;-61
2022/03/16 10:04:47;;;;;;;27.15;19.42;;;;;;;12.39;76.58;97453.88;10286439;28;20287;-59
2022/03/16 10:15:24;;;;;;;24.30;17.27;;;;;;;12.10;74.88;97465.38;10289572;28;20199;-57
2022/03/16 10:20:28;;;;;;;27.42;19.00;;;;;;;13.04;74.95;97492.19;10271939;28;20230;-58
2022/03/16 10:25:33;;;;;;;24.40;16.58;;;;;;;13.95;65.46;97363.69;10253771;29;20235;-56
2022/03/16 10:30:34;;;;;;;24.63;18.05;;;;;;;12.64;67.58;97407.56;10253603;29;20194;-58
2022/03/16 10:35:34;;;;;;;26.52;18.98;;;;;;;11.27;74.10;97514.28;10255775;28;20349;-55
2022/03/16 10:40:35;;;;;;;28.55;20.20;;;;;;;12.54;72.01;97476.97;10301482;28;20214;-59
2022/03/16 10:50:57;;;;;;;22.60;16.20;;;;;;;14.48;65.93;97416.97;10333827;28;20198;-59
2022/03/16 10:56:01;;;;;;;21.58;15.40;;;;;;;16.00;58.37;97302.56;10332730;28;20312;-61
2022/03/16 11:01:02;;;;;;;24.27;15.60;;;;;;;13.66;61.08;97341.22;10334568;28;20297;-59
2022/03/16 11:06:03;;;;;;;20.75;15.63;;;;;;;12.45;64.79;97403.34;10334412;28;20551;-57
2022/03/16 11:13:27;;;;;;;25.58;16.73;;;;;;;11.73;69.60;97489.84;10334096;28;20194;-57
2022/03/16 11:16:24;;;;;;;27.40;17.73;;;;;;;11.27;73.67;97549.25;10333053;28;20206;-58
2022/03/16 11:21:30;;;;;;;25.42;16.33;;;;;;;11.53;73.50;97538.13;10333674;28;20218;-61
2022/03/16 11:26:48;;;;;;;27.83;17.08;;;;;;;11.64;69.35;97446.13;10333153;28;20771;-59
2022/03/16 11:31:49;;;;;;;23.42;15.80;;;;;;;12.40;70.98;97502.78;10323854;28;20186;-59
2022/03/16 11:37:00;;;;;;;22.45;14.77;;;;;;;11.77;66.49;97422.94;10304861;28;20237;-58
2022/03/16 11:42:00;;;;;;;25.48;17.38;;;;;;;11.43;69.30;97481.25;10294618;28;20223;-54
2022/03/16 11:47:09;;;;;;;24.38;16.67;;;;;;;12.30;69.47;97488.91;10292781;28;20211;-60
2022/03/16 11:52:10;;;;;;;24.73;16.05;;;;;;;13.56;64.18;97386.13;10301853;28;20248;-58
2022/03/16 11:57:11;;;;;;;20.25;14.52;;;;;;;14.39;60.00;97334.41;10320624;28;20279;-61
2022/03/16 12:02:38;;;;;;;18.88;13.32;;;;;;;12.69;61.49;97344.03;10332281;28;20225;-57
2022/03/16 12:07:39;;;;;;;20.48;14.45;;;;;;;12.37;63.87;97391.91;10327339;28;20229;-59
2022/03/16 12:12:51;;;;;;;20.60;14.95;;;;;;;12.45;62.93;97374.44;10314618;28;20610;-58
2022/03/16 12:17:51;;;;;;;28.57;17.30;;;;;;;11.63;65.13;97412.94;10331659;28;20272;-59
2022/03/16 12:22:53;;;;;;;24.60;16.63;;;;;;;11.95;64.81;97406.47;10331266;28;20284;-58
2022/03/16 12:33:27;;;;;;;20.10;11.80;;;;;;;11.94;63.73;97373.28;10330708;28;20190;-59
2022/03/16 12:38:32;;;;;;;19.90;11.20;;;;;;;12.70;61.86;97348.31;10329923;28;20329;-59
2022/03/16 12:43:33;;;;;;;28.17;18.77;;;;;;;12.53;67.41;97459.56;10330573;28;20273;-60
2022/03/16 12:48:35;;;;;;;26.05;18.67;;;;;;;13.03;65.57;97419.53;10330401;28;20229;-60
2022/03/16 12:53:44;;;;;;;28.23;18.77;;;;;;;12.66;65.15;97410.91;10330417;28;20276;-61
2022/03/16 12:58:55;;;;;;;29.27;18.27;;;;;;;12.35;66.17;97431.47;10328906;28;20233;-62
2022/03/16 13:04:00;;;;;;;25.35;17.98;;;;;;;12.64;65.49;97412.84;10329263;28;20193;-63
2022/03/16 13:09:05;;;;;;;29.40;20.33;;;;;;;12.66;65.30;97404.78;10329029;28;20213;-63
2022/03/16 13:14:13;;;;;;;30.42;20.10;;;;;;;12.08;64.24;97375.41;10329873;28;20565;-62
2022/03/16 13:19:24;;;;;;;28.90;19.42;;;;;;;12.07;67.93;97454.34;10329544;28;20332;-60
2022/03/16 13:24:24;;;;;;;30.92;19.17;;;;;;;13.32;61.65;97336.81;10329061;28;20193;-62
2022/03/16 13:29:28;;;;;;;31.63;21.10;;;;;;;13.29;61.47;97337.97;10329222;28;20229;-63
2022/03/16 13:34:32;;;;;;;27.20;18.00;;;;;;;13.58;57.36;97246.44;10326942;28;20194;-61
2022/03/16 13:39:33;;;;;;;27.55;18.70;;;;;;;14.35;58.81;97320.75;10328665;28;20236;-61
2022/03/16 13:44:37;;;;;;;27.73;19.80;;;;;;;16.22;53.28;97218.13;10327782;28;20204;-63
2022/03/16 13:49:42;;;;;;;26.52;19.38;;;;;;;13.01;56.90;97245.28;10333586;28;20221;-60
2022/03/16 13:54:42;;;;;;;28.40;18.50;;;;;;;12.65;58.37;97288.31;10336882;28;20194;-60
2022/03/16 13:59:55;;;;;;;43.90;20.52;;;;;;;11.90;62.54;97371.91;10336121;28;20716;-61
2022/03/16 14:05:00;;;;;;;28.27;19.05;;;;;;;11.76;59.10;97281.34;10335600;28;20200;-60
2022/03/16 14:10:04;;;;;;;25.05;16.30;;;;;;;14.21;56.73;97287.97;10335217;28;20210;-59
2022/03/16 14:15:08;;;;;;;26.67;17.25;;;;;;;14.82;52.69;97189.97;10336181;28;20194;-61
2022/03/16 14:20:13;;;;;;;26.55;18.42;;;;;;;13.97;55.38;97266.91;10336165;28;20260;-58
2022/03/16 14:25:28;;;;;;;23.75;17.17;;;;;;;15.77;52.26;97233.84;10335733;28;20571;-61
2022/03/16 14:30:34;;;;;;;22.90;16.67;;;;;;;13.96;58.62;97347.72;10335674;28;20189;-59
2022/03/16 14:35:36;;;;;;;31.45;20.30;;;;;;;14.08;57.99;97327.97;10327240;28;20224;-58
2022/03/16 14:40:39;;;;;;;23.77;16.48;;;;;;;13.55;57.17;97290.53;10301651;28;20693;-62
2022/03/16 14:45:40;;;;;;;24.25;15.93;;;;;;;13.64;55.48;97245.78;10294700;28;20214;-60
2022/03/16 14:50:41;;;;;;;20.02;14.07;;;;;;;14.42;52.78;97207.56;10305806;28;20182;-62
2022/03/16 14:55:41;;;;;;;26.08;16.90;;;;;;;13.84;55.30;97268.22;10324174;28;20584;-60
2022/03/16 15:00:42;;;;;;;23.65;16.10;;;;;;;12.16;58.87;97308.16;10303384;28;20705;-59
2022/03/16 15:05:42;;;;;;;21.67;15.27;;;;;;;13.37;56.92;97287.19;10294229;28;20222;-57
2022/03/16 15:10:42;;;;;;;25.10;16.73;;;;;;;11.81;58.24;97288.78;10329785;28;20236;-62
2022/03/16 15:15:43;;;;;;;27.40;16.40;;;;;;;11.51;59.55;97314.41;10333591;28;20227;-61
2022/03/16 15:20:44;;;;;;;26.07;16.90;;;;;;;11.29;59.86;97319.09;10333735;28;20222;-60
2022/03/16 15:25:44;;;;;;;22.03;15.07;;;;;;;11.80;62.14;97376.41;10333484;28;20223;-60
2022/03/16 15:30:45;;;;;;;23.33;14.57;;;;;;;12.39;59.03;97311.13;10333407;28;20959;-58
2022/03/16 15:35:45;;;;;;;22.90;14.88;;;;;;;11.84;59.71;97304.22;10356973;23;20245;-61
2022/03/16 15:46:05;;;;;;;24.60;15.55;;;;;;;13.49;55.83;97269.28;10414569;28;20709;-63
2022/03/16 15:51:05;;;;;;;22.80;14.77;;;;;;;12.87;57.75;97317.69;10411768;28;20216;-60
2022/03/16 15:56:05;;;;;;;22.53;15.20;;;;;;;10.84;63.83;97416.78;10412637;28;20742;-56
2022/03/16 16:01:06;;;;;;;21.23;14.83;;;;;;;11.07;62.85;97386.69;10413418;28;20834;-59
2022/03/16 16:06:09;;;;;;;20.97;14.43;;;;;;;11.97;61.81;97394.00;10413099;28;20212;-56
2022/03/16 16:11:11;;;;;;;22.60;14.13;;;;;;;11.39;62.42;97405.59;10410497;28;20201;-59
2022/03/16 16:16:12;;;;;;;24.67;14.47;;;;;;;10.27;64.06;97412.25;10410846;28;20232;-58
2022/03/16 16:21:13;;;;;;;22.33;15.17;;;;;;;10.28;63.92;97424.38;10411884;28;20220;-61
2022/03/16 16:26:13;;;;;;;24.17;15.97;;;;;;;10.31;64.10;97424.13;10408857;28;20212;-61
2022/03/16 16:31:14;;;;;;;22.60;15.50;;;;;;;10.44;64.16;97426.47;10411150;28;20248;-62
2022/03/16 16:36:14;;;;;;;23.13;16.83;;;;;;;10.19;67.80;97493.28;10409709;28;20259;-62
2022/03/16 16:41:15;;;;;;;21.93;15.93;;;;;;;10.21;66.88;97490.53;10411340;28;20216;-61
2022/03/16 16:46:15;;;;;;;21.67;16.13;;;;;;;10.04;67.98;97497.25;10411216;28;20208;-61
2022/03/16 16:51:16;;;;;;;23.60;16.10;;;;;;;9.76;69.49;97531.03;10411764;28;20247;-61
2022/03/16 16:56:17;;;;;;;22.23;16.30;;;;;;;9.56;68.38;97488.25;10410431;28;20703;-59
2022/03/16 17:01:17;;;;;;;24.23;16.67;;;;;;;9.25;70.29;97523.06;10409761;28;20232;-58
2022/03/16 17:06:20;;;;;;;23.23;15.60;;;;;;;8.55;75.12;97606.22;10410723;28;20557;-59
2022/03/16 17:11:21;;;;;;;18.23;14.53;;;;;;;7.88;80.27;97645.38;10411258;28;20570;-59
2022/03/16 17:16:21;;;;;;;22.13;15.23;;;;;;;7.85;81.68;97634.19;10408949;28;20229;-58
2022/03/16 17:21:21;;;;;;;25.87;17.17;;;;;;;6.85;86.53;97630.34;10410652;28;20247;-58
2022/03/16 17:26:23;;;;;;;20.97;15.33;;;;;;;6.59;91.00;97607.81;10409408;28;20219;-56
2022/03/16 17:31:23;;;;;;;25.87;16.53;;;;;;;6.57;95.38;97612.31;10408191;28;20552;-57
2022/03/16 17:36:24;;;;;;;25.63;15.40;;;;;;;6.23;100.00;97629.44;10408771;28;20236;-56
2022/03/16 17:46:43;;;;;;;28.23;18.63;;;;;;;5.79;100.00;97643.69;10407800;28;20220;-56
2022/03/16 17:51:43;;;;;;;27.10;14.90;;;;;;;5.84;100.00;97649.44;10409542;28;20188;-55
2022/03/16 17:56:46;;;;;;;27.80;15.63;;;;;;;5.48;100.00;97645.72;10408748;28;20221;-57
2022/03/16 18:01:49;;;;;;;27.77;16.33;;;;;;;5.23;100.00;97638.72;10408093;28;20324;-62
2022/03/16 18:06:49;;;;;;;23.57;14.40;;;;;;;4.95;100.00;97648.31;10404763;28;21086;-54
2022/03/16 18:17:08;;;;;;;25.73;15.00;;;;;;;4.37;100.00;97635.47;10406296;28;20239;-56
2022/03/16 18:22:24;;;;;;;27.87;15.63;;;;;;;4.21;100.00;97632.13;10409915;28;20311;-56
2022/03/16 18:27:24;;;;;;;22.23;14.63;;;;;;;4.11;100.00;97635.28;10409301;28;20319;-55
2022/03/16 18:32:25;;;;;;;26.87;15.53;;;;;;;3.91;100.00;97640.88;10408965;28;20268;-55
2022/03/16 18:37:25;;;;;;;25.67;14.60;;;;;;;3.69;100.00;97643.88;10413847;28;20315;-55
2022/03/16 18:42:26;;;;;;;27.50;17.00;;;;;;;3.52;100.00;97645.72;10415077;28;20717;-55
2022/03/16 18:47:26;;;;;;;31.10;16.63;;;;;;;3.42;100.00;97638.56;10415269;28;20584;-55
2022/03/16 18:52:28;;;;;;;28.70;15.90;;;;;;;3.35;100.00;97651.03;10415385;28;20566;-59
2022/03/16 18:57:29;;;;;;;28.73;16.43;;;;;;;3.22;100.00;97649.13;10415050;28;20219;-56
2022/03/16 19:02:29;;;;;;;29.80;16.00;;;;;;;3.13;100.00;97638.47;10415674;28;20701;-56
2022/03/16 19:07:29;;;;;;;31.90;17.83;;;;;;;2.83;100.00;97654.78;10415358;28;20676;-56
2022/03/16 19:17:50;;;;;;;28.53;16.17;;;;;;;2.60;100.00;97643.94;10415262;28;20204;-59
2022/03/16 19:22:53;;;;;;;27.10;16.30;;;;;;;2.45;100.00;97650.81;10415558;28;20694;-56
2022/03/16 19:27:54;;;;;;;26.23;13.43;;;;;;;2.35;100.00;97641.03;10414430;28;20212;-56
2022/03/16 19:32:55;;;;;;;27.33;14.37;;;;;;;2.35;100.00;97654.81;10414748;28;20246;-58
2022/03/16 19:37:55;;;;;;;30.80;16.60;;;;;;;2.31;100.00;97648.13;10413330;28;20829;-57
2022/03/16 19:42:56;;;;;;;35.83;17.10;;;;;;;2.23;100.00;97639.94;10414359;28;20698;-56
2022/03/16 19:47:56;;;;;;;28.07;14.83;;;;;;;2.26;100.00;97643.19;10394851;28;20219;-58
2022/03/16 19:52:58;;;;;;;22.03;11.77;;;;;;;2.20;100.00;97633.19;10413009;28;20200;-59
2022/03/16 19:57:58;;;;;;;28.53;14.97;;;;;;;2.23;100.00;97634.78;10413758;28;20649;-58
2022/03/16 20:02:59;;;;;;;32.13;15.90;;;;;;;2.21;100.00;97624.50;10413516;28;20319;-57
2022/03/16 20:07:59;;;;;;;29.17;16.23;;;;;;;2.23;100.00;97622.66;10413502;28;20219;-59
2022/03/16 20:12:59;;;;;;;29.63;16.73;;;;;;;2.21;100.00;97634.03;10413453;28;20184;-58
2022/03/16 20:18:00;;;;;;;31.77;17.67;;;;;;;2.21;100.00;97613.34;10413190;28;20299;-59
2022/03/16 20:23:01;;;;;;;28.67;14.60;;;;;;;2.25;100.00;97612.25;10412922;28;20222;-60
2022/03/16 20:28:01;;;;;;;31.63;17.27;;;;;;;2.06;100.00;97602.91;10412474;28;20219;-58
2022/03/16 20:33:02;;;;;;;25.57;12.93;;;;;;;2.09;100.00;97596.75;10412426;28;20554;-59
2022/03/16 20:38:02;;;;;;;27.77;14.30;;;;;;;2.14;100.00;97605.06;10411950;28;20350;-57
2022/03/16 20:43:03;;;;;;;32.20;17.87;;;;;;;2.16;100.00;97612.75;10412306;28;20232;-56
2022/03/16 20:48:04;;;;;;;32.90;17.03;;;;;;;2.00;100.00;97608.38;10411466;28;20276;-59
2022/03/16 20:53:04;;;;;;;34.17;18.00;;;;;;;1.98;100.00;97610.22;10409469;28;20202;-56
2022/03/16 20:58:05;;;;;;;33.60;15.77;;;;;;;2.07;100.00;97620.06;10409113;28;20291;-57
2022/03/16 21:03:06;;;;;;;37.33;20.87;;;;;;;1.92;100.00;97610.56;10409879;28;20212;-57
2022/03/16 21:08:07;;;;;;;35.67;21.87;;;;;;;1.87;100.00;97617.69;10411551;28;20228;-57
2022/03/16 21:13:08;;;;;;;31.30;18.70;;;;;;;1.77;100.00;97622.50;10411414;28;20637;-58
2022/03/16 21:18:08;;;;;;;33.93;20.13;;;;;;;1.81;100.00;97629.19;10410959;28;20244;-57
2022/03/16 21:23:12;;;;;;;38.27;21.23;;;;;;;1.80;100.00;97618.94;10410323;28;20963;-56
2022/03/16 21:28:13;;;;;;;39.47;20.23;;;;;;;1.73;100.00;97639.06;10410204;28;20223;-59
2022/03/16 21:33:13;;;;;;;40.57;23.30;;;;;;;1.63;100.00;97632.72;10410663;28;20196;-58
2022/03/16 21:38:14;;;;;;;43.33;22.17;;;;;;;1.58;100.00;97643.28;10460682;23;20236;-56
2022/03/16 21:43:17;;;;;;;40.93;21.03;;;;;;;1.65;100.00;97649.78;10492924;28;20254;-61
2022/03/16 21:48:20;;;;;;;38.33;20.63;;;;;;;1.67;100.00;97650.56;10474932;28;20208;-55
2022/03/16 21:53:21;;;;;;;39.33;22.83;;;;;;;1.51;100.00;97637.56;10451427;28;20267;-54
2022/03/16 21:58:21;;;;;;;45.27;22.87;;;;;;;1.26;100.00;97622.50;10452506;28;20311;-58
2022/03/16 22:03:22;;;;;;;37.97;20.10;;;;;;;1.42;100.00;97630.28;10451103;28;20227;-56
2022/03/16 22:08:22;;;;;;;45.30;22.83;;;;;;;1.59;100.00;97638.03;10451437;28;20261;-53
2022/03/16 22:13:24;;;;;;;40.90;21.67;;;;;;;1.46;100.00;97646.50;10459367;28;20187;-55
2022/03/16 22:18:24;;;;;;;41.07;21.90;;;;;;;1.45;100.00;97665.47;10459230;28;20219;-53
2022/03/16 22:23:25;;;;;;;41.67;22.20;;;;;;;1.28;100.00;97661.97;10459490;28;20682;-55
2022/03/16 22:28:25;;;;;;;41.60;21.73;;;;;;;1.07;100.00;97648.34;10458950;28;20586;-56
2022/03/16 22:33:26;;;;;;;42.37;21.97;;;;;;;1.01;100.00;97641.75;10459084;28;20601;-57
2022/03/16 22:38:26;;;;;;;40.37;22.47;;;;;;;1.03;100.00;97621.03;10458673;28;20236;-60
2022/03/16 22:43:27;;;;;;;41.87;21.53;;;;;;;0.90;100.00;97605.31;10458862;28;20235;-56
2022/03/16 22:48:27;;;;;;;43.03;22.40;;;;;;;0.81;100.00;97582.53;10458341;28;20219;-59
2022/03/16 22:53:27;;;;;;;37.87;23.07;;;;;;;0.84;100.00;97577.22;10458466;28;20273;-60
2022/03/16 22:58:29;;;;;;;45.07;23.33;;;;;;;0.97;100.00;97567.16;10458113;28;20207;-59
2022/03/16 23:03:29;;;;;;;42.10;22.87;;;;;;;1.11;100.00;97579.38;10457901;28;20585;-53
2022/03/16 23:08:30;;;;;;;38.77;22.20;;;;;;;1.11;100.00;97546.66;10457654;28;20212;-60
2022/03/16 23:13:31;;;;;;;43.67;23.50;;;;;;;0.92;100.00;97549.34;10456955;28;20277;-54
2022/03/16 23:18:31;;;;;;;42.10;22.93;;;;;;;0.85;100.00;97566.03;10457267;28;20239;-54
2022/03/16 23:23:31;;;;;;;40.80;21.53;;;;;;;0.80;100.00;97576.56;10455737;28;20235;-56
2022/03/16 23:28:32;;;;;;;40.70;22.53;;;;;;;0.69;100.00;97571.09;10456414;28;20222;-56
2022/03/16 23:33:35;;;;;;;45.13;22.53;;;;;;;0.56;100.00;97568.25;10456350;28;20233;-56